sensor_id;sensor_type;location;lat;lon;timestamp;pressure;altitude;pressure_sealevel;temperature;humidity
84524;BME280;74765;44.538;18.668;2024-03-17T00:01:20;99290.25;;;17.88;52.67
84524;BME280;74765;44.538;18.668;2024-03-17T00:03:46;99298.84;;;17.85;52.79
84524;BME280;74765;44.538;18.668;2024-03-17T00:06:12;99290.97;;;17.95;52.58
84524;BME280;74765;44.538;18.668;2024-03-17T00:08:38;99298.97;;;17.90;52.76
84524;BME280;74765;44.538;18.668;2024-03-17T00:11:04;99303.31;;;17.91;52.85
84524;BME280;74765;44.538;18.668;2024-03-17T00:13:30;99303.38;;;18.08;52.46
84524;BME280;74765;44.538;18.668;2024-03-17T00:15:57;99298.19;;;18.18;52.17
84524;BME280;74765;44.538;18.668;2024-03-17T00:18:23;99301.63;;;18.02;52.74
84524;BME280;74765;44.538;18.668;2024-03-17T00:20:50;99301.28;;;18.10;52.54
84524;BME280;74765;44.538;18.668;2024-03-17T00:23:16;99300.28;;;18.16;52.20
84524;BME280;74765;44.538;18.668;2024-03-17T00:25:42;99298.19;;;18.18;51.76
84524;BME280;74765;44.538;18.668;2024-03-17T00:28:08;99301.38;;;18.15;52.27
84524;BME280;74765;44.538;18.668;2024-03-17T00:30:34;99292.06;;;18.11;51.80
84524;BME280;74765;44.538;18.668;2024-03-17T00:33:02;99288.84;;;18.25;52.27
84524;BME280;74765;44.538;18.668;2024-03-17T00:35:27;99293.88;;;17.93;52.36
84524;BME280;74765;44.538;18.668;2024-03-17T00:37:53;99284.13;;;17.92;52.93
84524;BME280;74765;44.538;18.668;2024-03-17T00:40:20;99300.47;;;17.98;52.87
84524;BME280;74765;44.538;18.668;2024-03-17T00:42:46;99301.56;;;17.85;53.34
84524;BME280;74765;44.538;18.668;2024-03-17T00:45:12;99300.13;;;17.82;53.49
84524;BME280;74765;44.538;18.668;2024-03-17T00:47:38;99300.13;;;17.82;53.49
84524;BME280;74765;44.538;18.668;2024-03-17T00:50:05;99300.50;;;17.86;53.69
84524;BME280;74765;44.538;18.668;2024-03-17T00:52:32;99292.50;;;17.79;53.10
84524;BME280;74765;44.538;18.668;2024-03-17T00:54:58;99296.09;;;17.97;53.09
84524;BME280;74765;44.538;18.668;2024-03-17T00:57:24;99302.50;;;17.79;53.68
84524;BME280;74765;44.538;18.668;2024-03-17T00:59:50;99312.84;;;17.70;53.81
84524;BME280;74765;44.538;18.668;2024-03-17T01:02:17;99316.00;;;17.56;54.52
84524;BME280;74765;44.538;18.668;2024-03-17T01:04:44;99308.63;;;17.74;54.25
84524;BME280;74765;44.538;18.668;2024-03-17T01:07:10;99308.13;;;18.01;52.97
84524;BME280;74765;44.538;18.668;2024-03-17T01:09:36;99310.44;;;18.09;52.86
84524;BME280;74765;44.538;18.668;2024-03-17T01:12:02;99307.28;;;18.00;52.74
84524;BME280;74765;44.538;18.668;2024-03-17T01:14:29;99313.31;;;17.90;52.76
84524;BME280;74765;44.538;18.668;2024-03-17T01:16:56;99308.41;;;17.76;53.50
84524;BME280;74765;44.538;18.668;2024-03-17T01:19:23;99312.50;;;17.78;53.67
84524;BME280;74765;44.538;18.668;2024-03-17T01:21:49;99315.09;;;17.73;54.11
84524;BME280;74765;44.538;18.668;2024-03-17T01:24:14;99314.13;;;17.79;53.26
84524;BME280;74765;44.538;18.668;2024-03-17T01:26:42;99312.25;;;17.80;53.22
84524;BME280;74765;44.538;18.668;2024-03-17T01:29:07;99304.03;;;17.63;54.08
84524;BME280;74765;44.538;18.668;2024-03-17T01:31:35;99313.91;;;17.58;54.06
84524;BME280;74765;44.538;18.668;2024-03-17T01:34:00;99311.09;;;17.64;53.58
84524;BME280;74765;44.538;18.668;2024-03-17T01:36:26;99310.59;;;17.44;54.38
84524;BME280;74765;44.538;18.668;2024-03-17T01:38:52;99315.06;;;17.38;54.73
84524;BME280;74765;44.538;18.668;2024-03-17T01:41:18;99310.13;;;17.47;54.86
84524;BME280;74765;44.538;18.668;2024-03-17T01:43:44;99311.91;;;17.53;54.37
84524;BME280;74765;44.538;18.668;2024-03-17T01:46:16;99318.88;;;17.61;54.58
84524;BME280;74765;44.538;18.668;2024-03-17T01:48:43;99308.16;;;17.66;54.21
84524;BME280;74765;44.538;18.668;2024-03-17T01:51:11;99316.38;;;17.59;54.19
84524;BME280;74765;44.538;18.668;2024-03-17T01:53:39;99313.56;;;17.66;54.03
84524;BME280;74765;44.538;18.668;2024-03-17T01:56:05;99322.75;;;17.76;54.06
84524;BME280;74765;44.538;18.668;2024-03-17T01:58:34;99318.72;;;17.90;53.50
84524;BME280;74765;44.538;18.668;2024-03-17T02:01:00;99325.31;;;17.83;53.70
84524;BME280;74765;44.538;18.668;2024-03-17T02:03:26;99323.75;;;17.99;53.40
84524;BME280;74765;44.538;18.668;2024-03-17T02:05:52;99324.97;;;17.91;53.79
84524;BME280;74765;44.538;18.668;2024-03-17T02:08:18;99324.13;;;17.90;53.36
84524;BME280;74765;44.538;18.668;2024-03-17T02:10:44;99325.91;;;17.73;53.77
84524;BME280;74765;44.538;18.668;2024-03-17T02:13:10;99328.75;;;17.67;54.24
84524;BME280;74765;44.538;18.668;2024-03-17T02:15:36;99321.69;;;17.66;54.34
84524;BME280;74765;44.538;18.668;2024-03-17T02:18:02;99320.34;;;17.45;54.47
84524;BME280;74765;44.538;18.668;2024-03-17T02:20:28;99330.72;;;17.48;55.02
84524;BME280;74765;44.538;18.668;2024-03-17T02:23:12;99329.88;;;17.24;55.64
84524;BME280;74765;44.538;18.668;2024-03-17T02:25:38;99342.53;;;17.12;56.25
84524;BME280;74765;44.538;18.668;2024-03-17T02:28:05;99344.53;;;17.17;56.19
84524;BME280;74765;44.538;18.668;2024-03-17T02:30:30;99340.19;;;17.27;55.95
84524;BME280;74765;44.538;18.668;2024-03-17T02:32:56;99326.81;;;17.32;55.16
84524;BME280;74765;44.538;18.668;2024-03-17T02:35:26;99329.16;;;17.40;54.78
84524;BME280;74765;44.538;18.668;2024-03-17T02:37:52;99320.59;;;17.43;55.08
84524;BME280;74765;44.538;18.668;2024-03-17T02:40:18;99324.50;;;17.59;54.74
84524;BME280;74765;44.538;18.668;2024-03-17T02:42:45;99316.59;;;17.46;55.37
84524;BME280;74765;44.538;18.668;2024-03-17T02:45:13;99313.66;;;17.24;56.15
84524;BME280;74765;44.538;18.668;2024-03-17T02:47:39;99306.94;;;17.27;56.09
84524;BME280;74765;44.538;18.668;2024-03-17T02:50:06;99308.84;;;17.38;55.46
84524;BME280;74765;44.538;18.668;2024-03-17T02:52:32;99324.81;;;17.39;55.97
84524;BME280;74765;44.538;18.668;2024-03-17T02:54:59;99323.22;;;16.97;57.31
84524;BME280;74765;44.538;18.668;2024-03-17T02:57:25;99329.13;;;17.05;56.99
84524;BME280;74765;44.538;18.668;2024-03-17T02:59:58;99328.81;;;16.84;57.62
84524;BME280;74765;44.538;18.668;2024-03-17T03:02:24;99315.38;;;16.95;57.83
84524;BME280;74765;44.538;18.668;2024-03-17T03:04:50;99324.44;;;17.13;57.02
84524;BME280;74765;44.538;18.668;2024-03-17T03:07:16;99326.22;;;17.19;56.81
84524;BME280;74765;44.538;18.668;2024-03-17T03:09:42;99320.34;;;17.22;56.83
84524;BME280;74765;44.538;18.668;2024-03-17T03:12:08;99324.91;;;17.21;57.19
84524;BME280;74765;44.538;18.668;2024-03-17T03:14:34;99324.09;;;17.21;56.77
84524;BME280;74765;44.538;18.668;2024-03-17T03:17:00;99318.66;;;16.97;57.38
84524;BME280;74765;44.538;18.668;2024-03-17T03:19:26;99316.56;;;17.11;56.95
84524;BME280;74765;44.538;18.668;2024-03-17T03:21:53;99325.13;;;17.08;56.80
84524;BME280;74765;44.538;18.668;2024-03-17T03:24:18;99324.44;;;17.01;57.20
84524;BME280;74765;44.538;18.668;2024-03-17T03:26:44;99322.06;;;17.04;57.24
84524;BME280;74765;44.538;18.668;2024-03-17T03:29:10;99319.50;;;17.21;56.53
84524;BME280;74765;44.538;18.668;2024-03-17T03:31:36;99324.47;;;17.24;56.84
84524;BME280;74765;44.538;18.668;2024-03-17T03:34:04;99331.16;;;17.33;56.50
84524;BME280;74765;44.538;18.668;2024-03-17T03:36:33;99327.63;;;17.33;56.65
84524;BME280;74765;44.538;18.668;2024-03-17T03:39:00;99334.09;;;17.32;56.61
84524;BME280;74765;44.538;18.668;2024-03-17T03:41:25;99333.75;;;17.40;56.07
84524;BME280;74765;44.538;18.668;2024-03-17T03:43:52;99340.44;;;17.26;56.58
84524;BME280;74765;44.538;18.668;2024-03-17T03:46:18;99344.19;;;17.13;57.16
84524;BME280;74765;44.538;18.668;2024-03-17T03:48:43;99348.09;;;17.29;56.75
84524;BME280;74765;44.538;18.668;2024-03-17T03:51:10;99348.66;;;17.19;56.80
84524;BME280;74765;44.538;18.668;2024-03-17T03:53:36;99358.50;;;17.25;56.37
84524;BME280;74765;44.538;18.668;2024-03-17T03:56:04;99345.97;;;17.31;55.72
84524;BME280;74765;44.538;18.668;2024-03-17T03:58:34;99346.22;;;17.29;55.97
84524;BME280;74765;44.538;18.668;2024-03-17T04:01:07;99344.78;;;17.27;56.11
84524;BME280;74765;44.538;18.668;2024-03-17T04:03:34;99356.53;;;17.32;56.83
84524;BME280;74765;44.538;18.668;2024-03-17T04:06:09;99356.91;;;17.24;57.01
84524;BME280;74765;44.538;18.668;2024-03-17T04:08:37;99360.03;;;17.21;57.01
84524;BME280;74765;44.538;18.668;2024-03-17T04:11:05;99360.66;;;17.35;55.87
84524;BME280;74765;44.538;18.668;2024-03-17T04:13:31;99368.31;;;17.38;56.44
84524;BME280;74765;44.538;18.668;2024-03-17T04:15:59;99363.81;;;17.32;56.41
84524;BME280;74765;44.538;18.668;2024-03-17T04:18:26;99370.19;;;17.49;56.02
84524;BME280;74765;44.538;18.668;2024-03-17T04:20:53;99370.41;;;17.36;56.42
84524;BME280;74765;44.538;18.668;2024-03-17T04:23:21;99370.53;;;17.29;56.60
84524;BME280;74765;44.538;18.668;2024-03-17T04:25:49;99376.94;;;17.17;56.52
84524;BME280;74765;44.538;18.668;2024-03-17T04:28:15;99377.47;;;17.37;56.04
84524;BME280;74765;44.538;18.668;2024-03-17T04:30:42;99374.28;;;17.40;55.48
84524;BME280;74765;44.538;18.668;2024-03-17T04:33:12;99381.31;;;17.18;56.83
84524;BME280;74765;44.538;18.668;2024-03-17T04:35:38;99387.75;;;17.05;57.23
84524;BME280;74765;44.538;18.668;2024-03-17T04:38:05;99394.00;;;16.87;57.39
84524;BME280;74765;44.538;18.668;2024-03-17T04:40:34;99394.59;;;17.31;55.50
84524;BME280;74765;44.538;18.668;2024-03-17T04:43:00;99394.50;;;17.37;55.55
84524;BME280;74765;44.538;18.668;2024-03-17T04:45:26;99392.53;;;16.91;57.13
84524;BME280;74765;44.538;18.668;2024-03-17T04:47:52;99389.16;;;16.78;57.59
84524;BME280;74765;44.538;18.668;2024-03-17T04:50:18;99387.88;;;16.80;56.95
84524;BME280;74765;44.538;18.668;2024-03-17T04:52:44;99394.06;;;16.51;58.26
84524;BME280;74765;44.538;18.668;2024-03-17T04:55:10;99392.03;;;16.46;58.23
84524;BME280;74765;44.538;18.668;2024-03-17T04:57:36;99396.06;;;16.55;58.31
84524;BME280;74765;44.538;18.668;2024-03-17T05:00:03;99396.47;;;16.59;58.09
84524;BME280;74765;44.538;18.668;2024-03-17T05:02:32;99392.31;;;16.75;57.76
84524;BME280;74765;44.538;18.668;2024-03-17T05:04:59;99386.59;;;16.83;57.89
84524;BME280;74765;44.538;18.668;2024-03-17T05:07:24;99402.91;;;16.76;57.35
84524;BME280;74765;44.538;18.668;2024-03-17T05:09:50;99418.28;;;16.76;57.75
84524;BME280;74765;44.538;18.668;2024-03-17T05:12:16;99413.66;;;16.94;57.21
84524;BME280;74765;44.538;18.668;2024-03-17T05:14:42;99419.41;;;16.98;57.23
84524;BME280;74765;44.538;18.668;2024-03-17T05:17:08;99419.47;;;17.10;56.38
84524;BME280;74765;44.538;18.668;2024-03-17T05:19:33;99419.06;;;16.94;57.12
84524;BME280;74765;44.538;18.668;2024-03-17T05:21:59;99419.59;;;17.15;56.49
84524;BME280;74765;44.538;18.668;2024-03-17T05:24:25;99420.53;;;17.09;56.92
84524;BME280;74765;44.538;18.668;2024-03-17T05:26:51;99416.34;;;16.94;57.11
84524;BME280;74765;44.538;18.668;2024-03-17T05:29:17;99424.81;;;16.98;56.87
84524;BME280;74765;44.538;18.668;2024-03-17T05:31:43;99428.41;;;17.10;56.96
84524;BME280;74765;44.538;18.668;2024-03-17T05:34:09;99430.34;;;17.03;56.54
84524;BME280;74765;44.538;18.668;2024-03-17T05:36:36;99431.53;;;17.07;57.15
84524;BME280;74765;44.538;18.668;2024-03-17T05:39:03;99440.03;;;17.11;57.43
84524;BME280;74765;44.538;18.668;2024-03-17T05:41:29;99439.34;;;16.85;57.49
84524;BME280;74765;44.538;18.668;2024-03-17T05:43:54;99456.81;;;17.13;56.74
84524;BME280;74765;44.538;18.668;2024-03-17T05:46:24;99454.25;;;17.18;56.90
84524;BME280;74765;44.538;18.668;2024-03-17T05:48:54;99456.59;;;17.14;55.96
84524;BME280;74765;44.538;18.668;2024-03-17T05:51:19;99459.81;;;17.34;55.48
84524;BME280;74765;44.538;18.668;2024-03-17T05:53:45;99452.03;;;17.15;56.33
84524;BME280;74765;44.538;18.668;2024-03-17T05:56:12;99443.28;;;17.01;56.76
84524;BME280;74765;44.538;18.668;2024-03-17T05:58:39;99463.25;;;17.00;56.99
84524;BME280;74765;44.538;18.668;2024-03-17T06:01:05;99455.63;;;17.09;57.15
84524;BME280;74765;44.538;18.668;2024-03-17T06:03:35;99463.56;;;17.22;56.38
84524;BME280;74765;44.538;18.668;2024-03-17T06:06:05;99464.66;;;17.02;57.29
84524;BME280;74765;44.538;18.668;2024-03-17T06:08:38;99473.94;;;17.06;57.09
84524;BME280;74765;44.538;18.668;2024-03-17T06:11:07;99475.88;;;17.18;56.53
84524;BME280;74765;44.538;18.668;2024-03-17T06:13:33;99470.13;;;17.14;56.80
84524;BME280;74765;44.538;18.668;2024-03-17T06:16:02;99471.91;;;16.90;57.24
84524;BME280;74765;44.538;18.668;2024-03-17T06:18:28;99473.63;;;16.85;57.26
84524;BME280;74765;44.538;18.668;2024-03-17T06:20:54;99475.50;;;16.84;57.79
84524;BME280;74765;44.538;18.668;2024-03-17T06:23:24;99476.75;;;17.00;57.78
84524;BME280;74765;44.538;18.668;2024-03-17T06:25:50;99486.22;;;17.21;56.79
84524;BME280;74765;44.538;18.668;2024-03-17T06:28:20;99477.94;;;17.34;55.96
84524;BME280;74765;44.538;18.668;2024-03-17T06:30:56;99489.53;;;17.53;55.84
84524;BME280;74765;44.538;18.668;2024-03-17T06:33:25;99487.31;;;17.31;56.12
84524;BME280;74765;44.538;18.668;2024-03-17T06:35:51;99490.06;;;17.43;56.19
84524;BME280;74765;44.538;18.668;2024-03-17T06:38:17;99491.13;;;17.42;55.45
84524;BME280;74765;44.538;18.668;2024-03-17T06:40:52;99496.94;;;17.57;55.53
84524;BME280;74765;44.538;18.668;2024-03-17T06:43:19;99494.53;;;17.79;54.82
84524;BME280;74765;44.538;18.668;2024-03-17T06:45:55;99499.63;;;17.99;54.81
84524;BME280;74765;44.538;18.668;2024-03-17T06:48:21;99506.00;;;18.04;54.44
84524;BME280;74765;44.538;18.668;2024-03-17T06:50:47;99507.00;;;17.91;54.95
84524;BME280;74765;44.538;18.668;2024-03-17T06:53:13;99518.31;;;17.77;55.26
84524;BME280;74765;44.538;18.668;2024-03-17T06:55:39;99518.78;;;17.85;54.62
84524;BME280;74765;44.538;18.668;2024-03-17T06:58:05;99521.63;;;17.90;55.27
84524;BME280;74765;44.538;18.668;2024-03-17T07:00:32;99527.16;;;17.96;54.52
84524;BME280;74765;44.538;18.668;2024-03-17T07:02:57;99524.69;;;17.94;54.77
84524;BME280;74765;44.538;18.668;2024-03-17T07:05:23;99530.94;;;18.18;53.71
84524;BME280;74765;44.538;18.668;2024-03-17T07:07:49;99532.97;;;18.34;54.20
84524;BME280;74765;44.538;18.668;2024-03-17T07:10:14;99537.78;;;18.55;53.70
84524;BME280;74765;44.538;18.668;2024-03-17T07:12:41;99533.44;;;18.66;53.35
84524;BME280;74765;44.538;18.668;2024-03-17T07:15:08;99532.38;;;18.44;54.21
84524;BME280;74765;44.538;18.668;2024-03-17T07:17:34;99530.56;;;18.72;53.30
84524;BME280;74765;44.538;18.668;2024-03-17T07:20:00;99535.75;;;18.74;53.25
84524;BME280;74765;44.538;18.668;2024-03-17T07:22:26;99536.81;;;18.85;53.02
84524;BME280;74765;44.538;18.668;2024-03-17T07:24:52;99535.50;;;18.99;53.14
84524;BME280;74765;44.538;18.668;2024-03-17T07:27:22;99530.16;;;19.44;51.88
84524;BME280;74765;44.538;18.668;2024-03-17T07:29:48;99540.47;;;19.58;51.20
84524;BME280;74765;44.538;18.668;2024-03-17T07:32:14;99536.00;;;19.81;51.32
84524;BME280;74765;44.538;18.668;2024-03-17T07:34:39;99550.72;;;19.85;51.18
84524;BME280;74765;44.538;18.668;2024-03-17T07:37:05;99548.78;;;19.69;51.13
84524;BME280;74765;44.538;18.668;2024-03-17T07:39:31;99555.34;;;19.56;51.04
84524;BME280;74765;44.538;18.668;2024-03-17T07:42:00;99547.50;;;19.43;50.43
84524;BME280;74765;44.538;18.668;2024-03-17T07:44:27;99539.47;;;19.08;51.88
84524;BME280;74765;44.538;18.668;2024-03-17T07:46:54;99545.00;;;19.01;52.22
84524;BME280;74765;44.538;18.668;2024-03-17T07:49:20;99551.78;;;19.67;51.45
84524;BME280;74765;44.538;18.668;2024-03-17T07:51:46;99549.66;;;20.02;49.88
84524;BME280;74765;44.538;18.668;2024-03-17T07:54:12;99555.97;;;19.91;50.25
84524;BME280;74765;44.538;18.668;2024-03-17T07:56:39;99555.66;;;20.21;49.87
84524;BME280;74765;44.538;18.668;2024-03-17T07:59:05;99554.84;;;20.21;50.03
84524;BME280;74765;44.538;18.668;2024-03-17T08:01:37;99552.63;;;19.84;50.34
84524;BME280;74765;44.538;18.668;2024-03-17T08:04:04;99551.97;;;20.10;49.74
84524;BME280;74765;44.538;18.668;2024-03-17T08:06:30;99548.13;;;20.40;49.00
84524;BME280;74765;44.538;18.668;2024-03-17T08:08:56;99552.97;;;20.55;48.19
84524;BME280;74765;44.538;18.668;2024-03-17T08:11:22;99556.88;;;20.64;48.71
84524;BME280;74765;44.538;18.668;2024-03-17T08:13:48;99553.50;;;20.73;48.06
84524;BME280;74765;44.538;18.668;2024-03-17T08:16:14;99549.78;;;20.79;48.14
84524;BME280;74765;44.538;18.668;2024-03-17T08:18:41;99551.31;;;20.92;48.01
84524;BME280;74765;44.538;18.668;2024-03-17T08:21:07;99551.34;;;21.14;47.32
84524;BME280;74765;44.538;18.668;2024-03-17T08:23:34;99559.88;;;21.22;47.18
84524;BME280;74765;44.538;18.668;2024-03-17T08:26:07;99553.25;;;21.62;46.75
84524;BME280;74765;44.538;18.668;2024-03-17T08:28:34;99554.16;;;21.72;44.79
84524;BME280;74765;44.538;18.668;2024-03-17T08:31:01;99558.47;;;21.42;47.03
84524;BME280;74765;44.538;18.668;2024-03-17T08:33:28;99553.78;;;20.93;46.99
84524;BME280;74765;44.538;18.668;2024-03-17T08:35:58;99556.75;;;20.53;48.93
84524;BME280;74765;44.538;18.668;2024-03-17T08:38:25;99558.81;;;20.46;48.54
84524;BME280;74765;44.538;18.668;2024-03-17T08:40:57;99554.75;;;20.66;48.43
84524;BME280;74765;44.538;18.668;2024-03-17T08:43:24;99551.97;;;20.61;48.49
84524;BME280;74765;44.538;18.668;2024-03-17T08:46:00;99553.47;;;20.51;48.14
84524;BME280;74765;44.538;18.668;2024-03-17T08:48:30;99546.53;;;20.61;47.79
84524;BME280;74765;44.538;18.668;2024-03-17T08:51:00;99555.91;;;20.53;48.19
84524;BME280;74765;44.538;18.668;2024-03-17T08:53:27;99551.06;;;20.72;48.43
84524;BME280;74765;44.538;18.668;2024-03-17T08:55:54;99549.84;;;21.06;47.46
84524;BME280;74765;44.538;18.668;2024-03-17T08:58:20;99559.38;;;21.25;46.92
84524;BME280;74765;44.538;18.668;2024-03-17T09:00:46;99556.34;;;21.05;46.34
84524;BME280;74765;44.538;18.668;2024-03-17T09:03:12;99554.16;;;20.80;47.14
84524;BME280;74765;44.538;18.668;2024-03-17T09:05:40;99556.31;;;21.00;47.03
84524;BME280;74765;44.538;18.668;2024-03-17T09:08:06;99550.59;;;20.80;46.77
84524;BME280;74765;44.538;18.668;2024-03-17T09:10:42;99552.13;;;20.54;46.74
84524;BME280;74765;44.538;18.668;2024-03-17T09:13:13;99549.63;;;20.69;47.94
84524;BME280;74765;44.538;18.668;2024-03-17T09:15:40;99548.44;;;20.82;47.80
84524;BME280;74765;44.538;18.668;2024-03-17T09:18:06;99552.34;;;20.86;47.28
84524;BME280;74765;44.538;18.668;2024-03-17T09:20:32;99552.75;;;20.78;47.58
84524;BME280;74765;44.538;18.668;2024-03-17T09:22:57;99549.09;;;20.89;46.53
84524;BME280;74765;44.538;18.668;2024-03-17T09:25:24;99548.09;;;21.38;45.31
84524;BME280;74765;44.538;18.668;2024-03-17T09:27:49;99548.47;;;21.74;44.16
84524;BME280;74765;44.538;18.668;2024-03-17T09:30:15;99543.41;;;22.09;43.31
84524;BME280;74765;44.538;18.668;2024-03-17T09:32:41;99543.00;;;22.28;43.73
84524;BME280;74765;44.538;18.668;2024-03-17T09:35:07;99541.06;;;22.65;42.98
84524;BME280;74765;44.538;18.668;2024-03-17T09:37:33;99543.28;;;23.25;41.41
84524;BME280;74765;44.538;18.668;2024-03-17T09:39:59;99541.53;;;23.66;39.73
84524;BME280;74765;44.538;18.668;2024-03-17T09:42:29;99531.97;;;24.14;39.13
84524;BME280;74765;44.538;18.668;2024-03-17T09:44:55;99528.59;;;23.36;40.13
84524;BME280;74765;44.538;18.668;2024-03-17T09:47:23;99525.25;;;23.14;38.77
84524;BME280;74765;44.538;18.668;2024-03-17T09:49:51;99522.75;;;23.07;38.88
84524;BME280;74765;44.538;18.668;2024-03-17T09:52:21;99527.75;;;23.36;37.75
84524;BME280;74765;44.538;18.668;2024-03-17T09:55:05;99534.16;;;22.52;37.92
84524;BME280;74765;44.538;18.668;2024-03-17T09:57:36;99528.22;;;23.07;37.19
84524;BME280;74765;44.538;18.668;2024-03-17T10:00:09;99529.19;;;23.48;38.20
84524;BME280;74765;44.538;18.668;2024-03-17T10:02:45;99527.31;;;23.74;38.90
84524;BME280;74765;44.538;18.668;2024-03-17T10:05:24;99527.56;;;23.68;38.07
84524;BME280;74765;44.538;18.668;2024-03-17T10:07:50;99525.00;;;23.31;38.31
84524;BME280;74765;44.538;18.668;2024-03-17T10:10:18;99526.22;;;23.70;38.57
84524;BME280;74765;44.538;18.668;2024-03-17T10:12:53;99512.84;;;23.79;37.13
84524;BME280;74765;44.538;18.668;2024-03-17T10:15:19;99516.69;;;24.28;35.99
84524;BME280;74765;44.538;18.668;2024-03-17T10:17:46;99516.22;;;25.11;32.50
84524;BME280;74765;44.538;18.668;2024-03-17T10:20:19;99511.38;;;24.93;34.17
84524;BME280;74765;44.538;18.668;2024-03-17T10:23:05;99509.69;;;25.07;34.29
84524;BME280;74765;44.538;18.668;2024-03-17T10:25:38;99497.78;;;26.09;32.98
84524;BME280;74765;44.538;18.668;2024-03-17T10:28:10;99505.66;;;25.43;31.89
84524;BME280;74765;44.538;18.668;2024-03-17T10:30:37;99505.22;;;25.26;30.50
84524;BME280;74765;44.538;18.668;2024-03-17T10:33:03;99498.94;;;25.69;29.25
84524;BME280;74765;44.538;18.668;2024-03-17T10:35:34;99494.69;;;25.43;29.89
84524;BME280;74765;44.538;18.668;2024-03-17T10:38:03;99487.94;;;24.61;31.59
84524;BME280;74765;44.538;18.668;2024-03-17T10:40:33;99490.00;;;25.00;32.38
84524;BME280;74765;44.538;18.668;2024-03-17T10:43:01;99493.72;;;25.19;29.87
84524;BME280;74765;44.538;18.668;2024-03-17T10:45:28;99500.59;;;24.22;28.56
84524;BME280;74765;44.538;18.668;2024-03-17T10:48:02;99499.44;;;24.43;29.05
84524;BME280;74765;44.538;18.668;2024-03-17T10:50:36;99498.94;;;24.21;29.52
84524;BME280;74765;44.538;18.668;2024-03-17T10:53:04;99498.56;;;24.68;28.48
84524;BME280;74765;44.538;18.668;2024-03-17T10:55:46;99507.13;;;23.75;29.90
84524;BME280;74765;44.538;18.668;2024-03-17T10:58:43;99495.66;;;23.88;33.42
84524;BME280;74765;44.538;18.668;2024-03-17T11:01:14;99501.63;;;23.55;35.54
84524;BME280;74765;44.538;18.668;2024-03-17T11:03:41;99499.69;;;24.57;32.84
84524;BME280;74765;44.538;18.668;2024-03-17T11:06:07;99495.13;;;24.22;33.47
84524;BME280;74765;44.538;18.668;2024-03-17T11:08:34;99491.84;;;24.20;31.86
84524;BME280;74765;44.538;18.668;2024-03-17T11:11:01;99492.13;;;24.23;32.69
84524;BME280;74765;44.538;18.668;2024-03-17T11:13:30;99491.53;;;24.06;32.31
84524;BME280;74765;44.538;18.668;2024-03-17T11:15:57;99488.84;;;24.16;31.73
84524;BME280;74765;44.538;18.668;2024-03-17T11:21:21;99479.19;;;23.38;31.61
84524;BME280;74765;44.538;18.668;2024-03-17T11:24:01;99473.75;;;23.38;31.73
84524;BME280;74765;44.538;18.668;2024-03-17T11:26:32;99467.69;;;23.21;31.33
84524;BME280;74765;44.538;18.668;2024-03-17T11:28:59;99466.38;;;23.43;30.60
84524;BME280;74765;44.538;18.668;2024-03-17T11:31:37;99460.69;;;23.60;30.61
84524;BME280;74765;44.538;18.668;2024-03-17T11:34:30;99452.22;;;23.67;29.45
84524;BME280;74765;44.538;18.668;2024-03-17T11:36:58;99462.13;;;21.96;30.73
84524;BME280;74765;44.538;18.668;2024-03-17T11:39:49;99455.47;;;22.66;30.34
84524;BME280;74765;44.538;18.668;2024-03-17T11:42:16;99462.25;;;23.31;29.36
84524;BME280;74765;44.538;18.668;2024-03-17T11:45:03;99453.81;;;24.33;28.01
84524;BME280;74765;44.538;18.668;2024-03-17T11:47:49;99451.38;;;22.68;30.44
84524;BME280;74765;44.538;18.668;2024-03-17T11:50:15;99449.22;;;23.58;29.05
84524;BME280;74765;44.538;18.668;2024-03-17T11:52:42;99441.16;;;21.65;32.10
84524;BME280;74765;44.538;18.668;2024-03-17T11:55:16;99435.09;;;21.90;32.43
84524;BME280;74765;44.538;18.668;2024-03-17T11:57:43;99430.88;;;22.51;30.66
84524;BME280;74765;44.538;18.668;2024-03-17T12:00:20;99432.00;;;22.60;30.14
84524;BME280;74765;44.538;18.668;2024-03-17T12:02:48;99427.88;;;23.40;29.59
84524;BME280;74765;44.538;18.668;2024-03-17T12:05:15;99428.66;;;23.20;29.46
84524;BME280;74765;44.538;18.668;2024-03-17T12:07:44;99421.53;;;22.94;30.02
84524;BME280;74765;44.538;18.668;2024-03-17T12:10:13;99422.38;;;23.20;30.04
84524;BME280;74765;44.538;18.668;2024-03-17T12:12:47;99418.28;;;23.07;31.41
84524;BME280;74765;44.538;18.668;2024-03-17T12:15:17;99415.03;;;23.20;31.50
84524;BME280;74765;44.538;18.668;2024-03-17T12:17:45;99415.03;;;23.25;32.12
84524;BME280;74765;44.538;18.668;2024-03-17T12:20:18;99407.19;;;23.69;32.09
84524;BME280;74765;44.538;18.668;2024-03-17T12:22:45;99412.09;;;23.77;31.21
84524;BME280;74765;44.538;18.668;2024-03-17T12:25:21;99402.22;;;23.31;31.59
84524;BME280;74765;44.538;18.668;2024-03-17T12:27:48;99404.69;;;23.37;31.88
84524;BME280;74765;44.538;18.668;2024-03-17T12:30:15;99403.03;;;24.22;31.63
84524;BME280;74765;44.538;18.668;2024-03-17T12:32:43;99402.22;;;24.22;31.31
84524;BME280;74765;44.538;18.668;2024-03-17T12:35:15;99395.38;;;24.14;29.63
84524;BME280;74765;44.538;18.668;2024-03-17T12:37:46;99394.75;;;24.42;29.63
84524;BME280;74765;44.538;18.668;2024-03-17T12:40:19;99391.56;;;24.20;30.66
84524;BME280;74765;44.538;18.668;2024-03-17T12:42:49;99397.66;;;23.57;30.84
84524;BME280;74765;44.538;18.668;2024-03-17T12:45:22;99397.91;;;23.55;30.75
84524;BME280;74765;44.538;18.668;2024-03-17T12:47:49;99387.81;;;23.45;30.95
84524;BME280;74765;44.538;18.668;2024-03-17T12:50:16;99388.28;;;23.12;31.74
84524;BME280;74765;44.538;18.668;2024-03-17T12:52:52;99380.34;;;23.05;30.63
84524;BME280;74765;44.538;18.668;2024-03-17T12:55:19;99387.53;;;23.57;30.91
84524;BME280;74765;44.538;18.668;2024-03-17T13:00:59;99376.59;;;23.87;30.57